createdAt,value
2023-04-19T00:01:51.805Z,65.88
2023-04-19T00:04:20.706Z,66.17
2023-04-19T00:06:47.834Z,66.26
2023-04-19T00:09:14.694Z,66.33
2023-04-19T00:11:42.732Z,66.25
2023-04-19T00:14:09.805Z,66.16
2023-04-19T00:16:36.930Z,66.45
2023-04-19T00:19:04.935Z,66.58
2023-04-19T00:21:33.202Z,66.48
2023-04-19T00:24:02.321Z,66.58
2023-04-19T00:26:29.023Z,66.77
2023-04-19T00:28:55.805Z,66.70
2023-04-19T00:31:22.618Z,66.92
2023-04-19T00:33:49.436Z,66.75
2023-04-19T00:36:16.163Z,66.91
2023-04-19T00:38:44.702Z,66.66
2023-04-19T00:41:11.562Z,66.77
2023-04-19T00:43:38.389Z,67.21
2023-04-19T00:46:06.308Z,67.12
2023-04-19T00:48:36.285Z,67.00
2023-04-19T00:51:04.110Z,67.44
2023-04-19T00:53:35.606Z,67.27
2023-04-19T00:56:05.438Z,67.45
2023-04-19T00:58:32.813Z,67.41
2023-04-19T01:01:00.491Z,67.54
2023-04-19T01:03:27.771Z,67.50
2023-04-19T01:05:56.306Z,67.72
2023-04-19T01:08:23.215Z,67.61
2023-04-19T01:10:50.357Z,67.45
2023-04-19T01:13:18.456Z,67.95
2023-04-19T01:15:45.445Z,67.61
2023-04-19T01:18:12.882Z,67.87
2023-04-19T01:20:41.047Z,67.95
2023-04-19T01:23:12.424Z,68.01
2023-04-19T01:25:39.522Z,68.18
2023-04-19T01:28:06.654Z,68.25
2023-04-19T01:30:34.182Z,68.14
2023-04-19T01:33:01.311Z,68.24
2023-04-19T01:35:28.223Z,68.29
2023-04-19T01:37:56.501Z,68.23
2023-04-19T01:40:25.924Z,68.32
2023-04-19T01:42:52.822Z,68.38
2023-04-19T01:45:19.953Z,68.34
2023-04-19T01:47:46.752Z,68.59
2023-04-19T01:50:13.580Z,68.51
2023-04-19T01:52:40.378Z,68.42
2023-04-19T01:55:07.726Z,68.36
2023-04-19T01:57:35.879Z,68.92
2023-04-19T02:00:02.761Z,68.65
2023-04-19T02:02:29.753Z,68.86
2023-04-19T02:04:57.807Z,68.81
2023-04-19T02:07:24.871Z,68.77
2023-04-19T02:09:51.593Z,68.58
2023-04-19T02:12:18.425Z,68.81
2023-04-19T02:14:46.512Z,68.99
2023-04-19T02:17:13.455Z,69.16
2023-04-19T02:19:40.335Z,69.29
2023-04-19T02:22:07.102Z,69.35
2023-04-19T02:24:33.900Z,69.25
2023-04-19T02:27:00.931Z,69.07
2023-04-19T02:29:28.917Z,69.50
2023-04-19T02:31:57.123Z,69.12
2023-04-19T02:34:23.968Z,69.24
2023-04-19T02:36:50.975Z,69.51
2023-04-19T02:39:18.946Z,69.22
2023-04-19T02:41:45.798Z,69.43
2023-04-19T02:44:12.754Z,69.50
2023-04-19T02:46:39.691Z,69.28
2023-04-19T02:49:07.868Z,69.57
2023-04-19T02:51:34.746Z,69.36
2023-04-19T02:54:01.555Z,69.83
2023-04-19T02:56:28.345Z,69.65
2023-04-19T02:58:55.263Z,69.36
2023-04-19T03:01:22.330Z,69.31
2023-04-19T03:03:49.469Z,69.51
2023-04-19T03:06:17.686Z,69.63
2023-04-19T03:08:44.445Z,69.69
2023-04-19T03:11:11.951Z,69.68
2023-04-19T03:13:40.726Z,69.47
2023-04-19T03:16:08.483Z,69.60
2023-04-19T03:18:37.492Z,69.83
2023-04-19T03:21:05.596Z,69.68
2023-04-19T03:23:34.130Z,69.26
2023-04-19T03:26:01.070Z,69.66
2023-04-19T03:28:27.772Z,69.67
2023-04-19T03:30:54.559Z,69.43
2023-04-19T03:33:22.509Z,69.76
2023-04-19T03:35:49.283Z,69.89
2023-04-19T03:38:15.967Z,69.74
2023-04-19T03:40:44.108Z,69.53
2023-04-19T03:43:10.810Z,69.57
2023-04-19T03:45:37.630Z,69.79
2023-04-19T03:48:04.480Z,69.73
2023-04-19T03:50:31.188Z,69.52
2023-04-19T03:53:04.008Z,69.68
2023-04-19T03:55:32.165Z,69.59
2023-04-19T03:58:00.954Z,69.52
2023-04-19T04:00:30.361Z,69.42
2023-04-19T04:02:57.561Z,69.74
2023-04-19T04:05:27.097Z,69.36
2023-04-19T04:07:59.331Z,69.33
2023-04-19T04:10:26.486Z,69.49
2023-04-19T04:12:53.504Z,69.47
2023-04-19T04:15:21.717Z,69.61
2023-04-19T04:17:48.629Z,69.23
2023-04-19T04:20:16.691Z,69.54
2023-04-19T04:22:46.150Z,69.38
2023-04-19T04:25:13.473Z,69.09
2023-04-19T04:27:40.244Z,69.42
2023-04-19T04:30:10.032Z,69.24
2023-04-19T04:32:38.788Z,69.11
2023-04-19T04:35:06.930Z,69.36
2023-04-19T04:37:36.962Z,68.99
2023-04-19T04:40:09.116Z,69.05
2023-04-19T04:42:37.817Z,69.06
2023-04-19T04:45:06.433Z,69.10
2023-04-19T04:47:33.904Z,68.78
2023-04-19T04:50:02.742Z,68.93
2023-04-19T04:52:30.113Z,68.93
2023-04-19T04:55:00.364Z,68.91
2023-04-19T04:57:27.140Z,68.72
2023-04-19T04:59:56.363Z,68.65
2023-04-19T05:02:26.423Z,68.19
2023-04-19T05:04:53.390Z,68.77
2023-04-19T05:07:21.509Z,68.60
2023-04-19T05:09:48.376Z,68.29
2023-04-19T05:12:16.161Z,68.32
2023-04-19T05:14:42.866Z,68.54
2023-04-19T05:17:09.554Z,68.35
2023-04-19T05:19:36.279Z,68.27
2023-04-19T05:22:03.003Z,68.24
2023-04-19T05:24:31.081Z,68.28
2023-04-19T05:26:57.839Z,68.21
2023-04-19T05:29:24.610Z,68.19
2023-04-19T05:31:52.140Z,68.13
2023-04-19T05:34:21.880Z,67.81
2023-04-19T05:36:49.083Z,67.73
2023-04-19T05:39:18.056Z,67.75
2023-04-19T05:41:46.394Z,67.69
2023-04-19T05:44:13.187Z,67.70
2023-04-19T05:46:40.439Z,67.74
2023-04-19T05:49:08.298Z,67.16
2023-04-19T05:51:35.026Z,67.17
2023-04-19T05:54:01.921Z,67.21
2023-04-19T05:56:28.677Z,67.12
2023-04-19T05:58:57.059Z,67.18
2023-04-19T06:01:24.130Z,66.82
2023-04-19T06:03:53.896Z,66.86
2023-04-19T06:06:22.243Z,66.53
2023-04-19T06:08:49.195Z,66.46
2023-04-19T06:11:24.907Z,66.33
2023-04-19T06:13:59.924Z,66.07
2023-04-19T06:16:26.963Z,66.19
2023-04-19T06:18:54.185Z,65.73
2023-04-19T06:21:22.449Z,65.81
2023-04-19T06:23:49.127Z,65.54
2023-04-19T06:26:17.027Z,65.40
2023-04-19T06:28:43.791Z,65.47
2023-04-19T06:31:12.314Z,65.12
2023-04-19T06:33:39.604Z,64.85
2023-04-19T06:36:11.702Z,64.58
2023-04-19T06:38:38.701Z,64.40
2023-04-19T06:41:05.578Z,64.19
2023-04-19T06:43:32.263Z,64.07
2023-04-19T06:46:00.796Z,63.75
2023-04-19T06:48:29.398Z,63.56
2023-04-19T06:50:56.220Z,63.38
2023-04-19T06:53:23.229Z,62.80
2023-04-19T06:55:57.298Z,62.85
2023-04-19T06:58:24.057Z,61.85
2023-04-19T07:00:52.128Z,61.58
2023-04-19T07:03:19.483Z,61.85
2023-04-19T07:05:48.107Z,61.59
2023-04-19T07:08:15.103Z,61.42
2023-04-19T07:10:44.158Z,60.41
2023-04-19T07:13:12.385Z,60.44
2023-04-19T07:15:41.425Z,60.03
2023-04-19T07:18:11.064Z,60.20
2023-04-19T07:20:39.456Z,58.74
2023-04-19T07:23:07.830Z,59.09
2023-04-19T07:25:34.484Z,59.54
2023-04-19T07:28:01.518Z,59.39
2023-04-19T07:30:28.327Z,59.00
2023-04-19T07:32:56.336Z,59.00
2023-04-19T07:35:23.253Z,58.86
2023-04-19T07:37:50.038Z,58.59
2023-04-19T07:40:20.277Z,58.82
2023-04-19T07:42:47.126Z,58.47
2023-04-19T07:45:19.394Z,58.39
2023-04-19T07:47:46.496Z,58.01
2023-04-19T07:50:14.836Z,57.65
2023-04-19T07:52:42.717Z,58.05
2023-04-19T07:55:10.089Z,57.57
2023-04-19T07:57:39.067Z,57.61
2023-04-19T08:00:07.794Z,57.69
2023-04-19T08:02:36.155Z,57.57
2023-04-19T08:05:08.350Z,56.66
2023-04-19T08:07:37.008Z,56.60
2023-04-19T08:10:04.462Z,56.82
2023-04-19T08:12:42.737Z,56.96
2023-04-19T08:15:52.273Z,56.50
2023-04-19T08:18:05.563Z,56.24
2023-04-19T08:20:34.794Z,56.35
2023-04-19T08:23:07.600Z,55.89
2023-04-19T08:25:41.538Z,55.76
2023-04-19T08:28:09.200Z,55.78
2023-04-19T08:30:40.918Z,55.74
2023-04-19T08:33:09.008Z,54.90
2023-04-19T08:35:37.863Z,54.43
2023-04-19T08:38:05.036Z,54.45
2023-04-19T08:40:31.843Z,54.56
2023-04-19T08:43:00.366Z,54.65
2023-04-19T08:45:35.341Z,54.39
2023-04-19T08:48:07.145Z,54.23
2023-04-19T08:50:40.712Z,53.58
2023-04-19T08:53:34.326Z,53.16
2023-04-19T08:58:52.043Z,53.08
2023-04-19T09:04:31.471Z,52.72
2023-04-19T09:07:22.415Z,52.26
2023-04-19T09:10:05.838Z,52.33
2023-04-19T09:12:33.740Z,52.49
2023-04-19T09:15:14.187Z,52.62
2023-04-19T09:17:42.758Z,52.06
2023-04-19T09:20:14.803Z,52.48
2023-04-19T09:23:03.152Z,52.51
2023-04-19T09:25:47.173Z,52.67
2023-04-19T09:28:24.393Z,52.39
2023-04-19T09:33:41.367Z,50.98
2023-04-19T09:36:27.915Z,51.73
2023-04-19T09:38:58.947Z,51.03
2023-04-19T09:41:35.018Z,51.83
2023-04-19T09:44:44.576Z,51.81
2023-04-19T09:46:58.956Z,50.87
2023-04-19T09:52:08.731Z,51.05
2023-04-19T09:54:36.130Z,50.65
2023-04-19T09:57:04.173Z,50.83
2023-04-19T09:59:32.026Z,50.45
2023-04-19T10:02:03.319Z,50.58
2023-04-19T10:04:44.119Z,50.82
2023-04-19T10:10:19.602Z,50.52
2023-04-19T10:15:33.883Z,50.06
2023-04-19T10:18:12.049Z,50.00
2023-04-19T10:20:49.603Z,50.00
2023-04-19T10:23:20.008Z,49.06
2023-04-19T10:25:48.033Z,49.93
2023-04-19T10:28:18.061Z,49.45
2023-04-19T10:31:06.610Z,48.84
2023-04-19T10:33:39.298Z,48.59
2023-04-19T10:36:15.449Z,48.49
2023-04-19T10:38:48.210Z,48.13
2023-04-19T10:41:18.310Z,48.50
2023-04-19T10:43:47.892Z,48.53
2023-04-19T10:46:17.740Z,48.27
2023-04-19T10:48:57.611Z,47.29
2023-04-19T10:51:29.115Z,47.42
2023-04-19T10:54:07.380Z,47.74
2023-04-19T10:57:11.557Z,47.67
2023-04-19T10:59:48.184Z,47.45
2023-04-19T11:02:29.294Z,47.20
2023-04-19T11:05:06.517Z,47.12
2023-04-19T11:07:43.281Z,46.92
2023-04-19T11:10:13.183Z,47.19
2023-04-19T11:12:44.105Z,46.80
2023-04-19T11:15:14.331Z,45.68
2023-04-19T11:17:42.902Z,45.66
2023-04-19T11:20:15.917Z,45.40
2023-04-19T11:22:44.871Z,45.43
2023-04-19T11:25:14.642Z,44.86
2023-04-19T11:27:43.888Z,44.65
2023-04-19T11:30:12.954Z,44.98
2023-04-19T11:32:46.002Z,44.18
2023-04-19T11:35:16.152Z,43.75
2023-04-19T11:37:44.121Z,43.85
2023-04-19T11:40:17.261Z,43.39
2023-04-19T11:42:48.847Z,43.13
2023-04-19T11:45:30.061Z,42.05
2023-04-19T11:47:59.532Z,42.89
2023-04-19T11:50:41.130Z,42.68
2023-04-19T11:53:19.671Z,42.01
2023-04-19T11:56:19.772Z,42.53
2023-04-19T11:58:51.340Z,42.40
2023-04-19T12:01:20.798Z,42.13
2023-04-19T12:03:49.297Z,42.27
2023-04-19T12:06:20.742Z,41.92
2023-04-19T12:08:50.471Z,41.43
2023-04-19T12:11:22.373Z,41.38
2023-04-19T12:13:49.775Z,41.15
2023-04-19T12:16:30.381Z,40.90
2023-04-19T12:18:57.111Z,40.14
2023-04-19T12:21:26.541Z,40.40
2023-04-19T12:23:57.676Z,40.72
2023-04-19T12:26:29.538Z,40.77
2023-04-19T12:28:57.439Z,38.99
2023-04-19T12:31:24.150Z,39.16
2023-04-19T12:33:52.621Z,39.41
2023-04-19T12:36:19.886Z,39.50
2023-04-19T12:38:46.703Z,39.81
2023-04-19T12:41:13.553Z,40.00
2023-04-19T12:43:41.644Z,40.30
2023-04-19T12:46:08.367Z,40.15
2023-04-19T12:48:35.183Z,40.19
2023-04-19T12:51:02.050Z,40.21
2023-04-19T12:53:37.627Z,40.23
2023-04-19T12:56:04.567Z,40.59
2023-04-19T12:58:32.267Z,40.11
2023-04-19T13:01:02.424Z,39.43
2023-04-19T13:03:33.290Z,39.32
2023-04-19T13:06:00.283Z,39.85
2023-04-19T13:08:43.390Z,40.29
2023-04-19T13:11:23.635Z,40.35
2023-04-19T13:13:52.222Z,39.83
2023-04-19T13:16:20.939Z,39.65
2023-04-19T13:18:48.011Z,40.10
2023-04-19T13:21:16.785Z,39.90
2023-04-19T13:23:53.507Z,40.02
2023-04-19T13:26:21.345Z,40.11
2023-04-19T13:28:48.378Z,40.02
2023-04-19T13:31:15.185Z,39.98
2023-04-19T13:33:43.875Z,39.73
2023-04-19T13:36:11.869Z,38.95
2023-04-19T13:38:39.118Z,39.25
2023-04-19T13:41:05.948Z,39.41
2023-04-19T13:43:32.584Z,39.68
2023-04-19T13:45:59.848Z,39.50
2023-04-19T13:48:34.897Z,39.54
2023-04-19T13:51:03.423Z,39.43
2023-04-19T13:53:30.300Z,39.12
2023-04-19T13:55:57.628Z,39.61
2023-04-19T13:58:24.945Z,38.43
2023-04-19T14:00:51.729Z,38.79
2023-04-19T14:03:18.651Z,38.63
2023-04-19T14:05:48.657Z,38.82
2023-04-19T14:08:17.234Z,36.51
2023-04-19T14:10:44.170Z,37.14
2023-04-19T14:13:18.955Z,36.23
2023-04-19T14:15:54.551Z,37.29
2023-04-19T14:18:24.653Z,37.45
2023-04-19T14:20:51.799Z,36.16
2023-04-19T14:23:36.210Z,36.89
2023-04-19T14:26:06.478Z,36.73
2023-04-19T14:28:35.163Z,37.14
2023-04-19T14:31:02.262Z,37.45
2023-04-19T14:33:53.110Z,37.92
2023-04-19T14:36:20.089Z,36.88
2023-04-19T14:39:08.965Z,37.41
2023-04-19T14:41:38.825Z,37.43
2023-04-19T14:44:07.100Z,37.03
2023-04-19T14:46:36.128Z,37.34
2023-04-19T14:49:06.722Z,37.51
2023-04-19T14:51:33.495Z,37.97
2023-04-19T14:54:01.588Z,37.94
2023-04-19T14:56:34.209Z,38.17
2023-04-19T14:59:00.957Z,38.69
2023-04-19T15:01:27.932Z,38.71
2023-04-19T15:03:54.984Z,38.45
2023-04-19T15:06:22.448Z,38.56
2023-04-19T15:08:49.246Z,38.07
2023-04-19T15:11:17.475Z,38.50
2023-04-19T15:13:44.581Z,38.27
2023-04-19T15:16:13.887Z,37.14
2023-04-19T15:18:40.722Z,36.95
2023-04-19T15:21:07.657Z,37.25
2023-04-19T15:23:34.603Z,37.53
2023-04-19T15:26:01.474Z,37.46
2023-04-19T15:28:31.998Z,37.92
2023-04-19T15:31:00.731Z,38.04
2023-04-19T15:33:27.835Z,38.15
2023-04-19T15:35:55.806Z,38.43
2023-04-19T15:38:23.418Z,38.11
2023-04-19T15:40:50.391Z,38.29
2023-04-19T15:43:17.259Z,38.36
2023-04-19T15:45:45.906Z,38.15
2023-04-19T15:48:13.418Z,38.17
2023-04-19T15:50:44.055Z,38.44
2023-04-19T15:53:11.327Z,38.61
2023-04-19T15:55:41.780Z,38.89
2023-04-19T15:58:11.184Z,38.82
2023-04-19T16:00:41.566Z,38.57
2023-04-19T16:03:13.258Z,38.58
2023-04-19T16:05:43.477Z,38.82
2023-04-19T16:08:17.392Z,38.76
2023-04-19T16:10:45.822Z,38.49
2023-04-19T16:13:38.276Z,38.83
2023-04-19T16:16:06.156Z,38.74
2023-04-19T16:18:41.335Z,38.85
2023-04-19T16:21:08.741Z,39.24
2023-04-19T16:23:35.645Z,39.36
2023-04-19T16:26:15.397Z,39.26
2023-04-19T16:28:42.317Z,38.95
2023-04-19T16:31:16.359Z,39.12
2023-04-19T16:33:45.707Z,38.72
2023-04-19T16:36:12.432Z,39.04
2023-04-19T16:38:39.631Z,39.41
2023-04-19T16:41:10.394Z,39.77
2023-04-19T16:43:37.526Z,39.39
2023-04-19T16:46:05.770Z,39.48
2023-04-19T16:48:40.938Z,39.22
2023-04-19T16:51:11.382Z,39.09
2023-04-19T16:53:44.132Z,39.31
2023-04-19T16:56:11.130Z,39.30
2023-04-19T16:58:37.949Z,39.38
2023-04-19T17:01:04.982Z,39.39
2023-04-19T17:03:31.950Z,39.62
2023-04-19T17:05:58.886Z,39.70
2023-04-19T17:08:26.996Z,40.06
2023-04-19T17:11:01.329Z,40.04
2023-04-19T17:13:28.331Z,40.28
2023-04-19T17:15:56.928Z,40.42
2023-04-19T17:18:23.716Z,40.29
2023-04-19T17:20:50.668Z,40.27
2023-04-19T17:23:19.187Z,40.41
2023-04-19T17:25:47.840Z,40.53
2023-04-19T17:28:50.346Z,40.19
2023-04-19T17:31:17.643Z,39.48
2023-04-19T17:33:44.447Z,40.23
2023-04-19T17:36:13.180Z,40.48
2023-04-19T17:38:42.282Z,40.54
2023-04-19T17:41:18.349Z,40.59
2023-04-19T17:43:46.048Z,40.69
2023-04-19T17:46:27.524Z,40.93
2023-04-19T17:48:56.320Z,40.44
2023-04-19T17:51:24.412Z,39.82
2023-04-19T17:53:59.456Z,39.47
2023-04-19T17:56:41.367Z,39.90
2023-04-19T17:59:22.291Z,40.05
2023-04-19T18:01:49.081Z,40.12
2023-04-19T18:04:20.575Z,40.33
2023-04-19T18:06:48.051Z,40.36
2023-04-19T18:09:16.779Z,40.97
2023-04-19T18:11:45.382Z,40.74
2023-04-19T18:14:13.380Z,40.55
2023-04-19T18:16:41.491Z,41.15
2023-04-19T18:19:08.317Z,41.03
2023-04-19T18:21:35.631Z,40.95
2023-04-19T18:24:10.726Z,41.05
2023-04-19T18:26:38.897Z,41.41
2023-04-19T18:29:09.598Z,41.75
2023-04-19T18:31:36.302Z,41.74
2023-04-19T18:34:06.455Z,41.83
2023-04-19T18:36:33.267Z,41.71
2023-04-19T18:39:00.145Z,41.39
2023-04-19T18:41:26.904Z,41.65
2023-04-19T18:44:24.768Z,41.71
2023-04-19T18:46:42.732Z,41.76
2023-04-19T18:49:10.722Z,41.73
2023-04-19T18:51:38.164Z,41.56
2023-04-19T18:54:12.852Z,41.23
2023-04-19T18:57:18.582Z,41.11
2023-04-19T18:59:27.659Z,40.98
2023-04-19T19:01:57.216Z,41.26
2023-04-19T19:06:54.609Z,41.46
2023-04-19T19:09:23.636Z,41.16
2023-04-19T19:11:56.502Z,41.13
2023-04-19T19:14:24.250Z,41.21
2023-04-19T19:16:52.943Z,40.93
2023-04-19T19:19:22.513Z,41.23
2023-04-19T19:21:49.619Z,41.13
2023-04-19T19:24:16.400Z,41.15
2023-04-19T19:26:43.171Z,41.56
2023-04-19T19:29:10.880Z,41.81
2023-04-19T19:31:37.763Z,41.56
2023-04-19T19:34:23.414Z,41.55
2023-04-19T19:36:53.101Z,41.83
2023-04-19T19:39:24.789Z,41.44
2023-04-19T19:42:05.329Z,41.69
2023-04-19T19:44:33.304Z,41.56
2023-04-19T19:47:00.361Z,41.76
2023-04-19T19:49:27.788Z,41.93
2023-04-19T19:51:59.441Z,41.49
2023-04-19T19:54:26.851Z,41.88
2023-04-19T19:57:39.569Z,42.17
2023-04-19T19:59:51.262Z,41.57
2023-04-19T20:02:34.496Z,41.89
2023-04-19T20:05:06.734Z,41.00
2023-04-19T20:08:00.482Z,41.84
2023-04-19T20:10:30.695Z,41.69
2023-04-19T20:12:58.578Z,41.69
2023-04-19T20:15:25.706Z,41.80
2023-04-19T20:17:53.188Z,41.72
2023-04-19T20:20:26.658Z,41.74
2023-04-19T20:22:55.119Z,42.00
2023-04-19T20:25:23.217Z,41.72
2023-04-19T20:27:50.089Z,41.76
2023-04-19T20:30:21.769Z,42.06
2023-04-19T20:32:50.646Z,41.28
2023-04-19T20:35:18.243Z,41.81
2023-04-19T20:37:48.405Z,41.88
2023-04-19T20:40:20.465Z,42.00
2023-04-19T20:42:48.710Z,41.65
2023-04-19T20:45:17.483Z,41.77
2023-04-19T20:47:48.655Z,41.56
2023-04-19T20:50:16.417Z,41.80
2023-04-19T20:52:43.367Z,41.50
2023-04-19T20:55:10.496Z,41.95
2023-04-19T20:57:42.502Z,41.79
2023-04-19T21:00:32.116Z,41.65
2023-04-19T21:03:03.164Z,41.89
2023-04-19T21:05:30.369Z,41.58
2023-04-19T21:07:57.442Z,41.90
2023-04-19T21:10:24.331Z,41.86
2023-04-19T21:12:54.111Z,41.80
2023-04-19T21:15:21.864Z,41.87
2023-04-19T21:17:48.661Z,41.43
2023-04-19T21:20:18.059Z,41.24
2023-04-19T21:22:48.339Z,41.77
2023-04-19T21:25:16.010Z,41.49
2023-04-19T21:27:43.046Z,41.66
2023-04-19T21:30:12.288Z,41.67
2023-04-19T21:32:42.325Z,41.69
2023-04-19T21:35:11.590Z,41.77
2023-04-19T21:37:38.345Z,41.59
2023-04-19T21:40:06.337Z,41.88
2023-04-19T21:42:33.265Z,41.66
2023-04-19T21:45:05.365Z,41.82
2023-04-19T21:47:34.839Z,41.21
2023-04-19T21:50:01.665Z,41.28
2023-04-19T21:52:28.481Z,41.65
2023-04-19T21:54:55.264Z,40.99
2023-04-19T21:57:24.621Z,41.37
2023-04-19T21:59:51.427Z,41.47
2023-04-19T22:02:19.686Z,41.55
2023-04-19T22:04:48.852Z,41.13
2023-04-19T22:07:18.357Z,41.79
2023-04-19T22:09:46.684Z,41.65
2023-04-19T22:12:20.897Z,41.47
2023-04-19T22:14:48.115Z,41.46
2023-04-19T22:17:15.040Z,41.40
2023-04-19T22:19:41.983Z,41.55
2023-04-19T22:22:13.280Z,41.89
2023-04-19T22:24:53.841Z,41.52
2023-04-19T22:27:27.435Z,41.38
2023-04-19T22:29:54.202Z,41.39
2023-04-19T22:32:21.410Z,41.48
2023-04-19T22:34:48.277Z,41.01
2023-04-19T22:37:17.971Z,41.20
2023-04-19T22:39:44.947Z,41.47
2023-04-19T22:42:12.612Z,41.16
2023-04-19T22:44:39.676Z,41.56
2023-04-19T22:47:07.762Z,41.64
2023-04-19T22:49:35.205Z,41.62
2023-04-19T22:52:01.972Z,41.33
2023-04-19T22:54:30.145Z,41.69
2023-04-19T22:56:58.219Z,41.00
2023-04-19T22:59:26.710Z,41.40
2023-04-19T23:01:53.704Z,41.31
2023-04-19T23:04:20.977Z,40.82
2023-04-19T23:06:48.777Z,41.36
2023-04-19T23:09:15.944Z,40.78
2023-04-19T23:11:45.535Z,41.25
2023-04-19T23:14:12.914Z,40.93
2023-04-19T23:16:39.679Z,41.78
2023-04-19T23:19:08.410Z,41.58
2023-04-19T23:21:39.244Z,41.51
2023-04-19T23:24:06.623Z,41.86
2023-04-19T23:26:33.713Z,41.80
2023-04-19T23:29:02.371Z,42.05
2023-04-19T23:31:29.137Z,42.03
2023-04-19T23:33:56.462Z,41.33
2023-04-19T23:36:23.738Z,41.78
2023-04-19T23:38:50.642Z,41.95
2023-04-19T23:41:18.545Z,41.94
2023-04-19T23:43:46.406Z,42.04
2023-04-19T23:46:14.565Z,41.76
2023-04-19T23:48:41.670Z,42.18
2023-04-19T23:51:09.414Z,41.87
2023-04-19T23:53:38.655Z,41.70
2023-04-19T23:56:07.297Z,41.42
2023-04-19T23:58:35.455Z,41.86
